createdAt,value
2023-03-19T00:00:43.824Z,35.30
2023-03-19T00:03:11.121Z,35.30
2023-03-19T00:05:38.468Z,35.20
2023-03-19T00:08:05.857Z,35.40
2023-03-19T00:10:32.811Z,35.20
2023-03-19T00:12:59.970Z,35.30
2023-03-19T00:15:27.030Z,35.40
2023-03-19T00:17:54.527Z,35.30
2023-03-19T00:20:22.332Z,35.50
2023-03-19T00:22:49.604Z,35.60
2023-03-19T00:25:16.824Z,35.60
2023-03-19T00:27:44.717Z,34.30
2023-03-19T00:30:12.451Z,33.70
2023-03-19T00:32:40.865Z,33.80
2023-03-19T00:35:08.970Z,34.10
2023-03-19T00:37:37.467Z,34.40
2023-03-19T00:40:05.256Z,34.60
2023-03-19T00:42:32.687Z,34.60
2023-03-19T00:44:59.776Z,34.80
2023-03-19T00:47:27.872Z,34.80
2023-03-19T00:49:54.875Z,34.60
2023-03-19T00:52:21.924Z,34.60
2023-03-19T00:54:48.948Z,34.60
2023-03-19T00:57:16.079Z,34.00
2023-03-19T00:59:43.064Z,33.40
2023-03-19T01:02:10.958Z,33.70
2023-03-19T01:04:38.122Z,34.20
2023-03-19T01:07:06.173Z,34.30
2023-03-19T01:09:33.696Z,34.00
2023-03-19T01:12:03.878Z,34.00
2023-03-19T01:14:31.935Z,34.20
2023-03-19T01:16:59.394Z,34.70
2023-03-19T01:19:27.382Z,34.90
2023-03-19T01:21:54.328Z,35.00
2023-03-19T01:24:21.733Z,35.20
2023-03-19T01:26:48.727Z,35.20
2023-03-19T01:29:15.642Z,35.10
2023-03-19T01:31:42.594Z,35.00
2023-03-19T01:34:09.829Z,34.40
2023-03-19T01:36:36.842Z,34.60
2023-03-19T01:39:04.178Z,34.70
2023-03-19T01:41:31.360Z,34.70
2023-03-19T01:43:58.345Z,34.70
2023-03-19T01:46:34.796Z,34.60
2023-03-19T01:49:06.695Z,34.20
2023-03-19T01:51:39.785Z,34.30
2023-03-19T01:54:12.264Z,34.40
2023-03-19T01:56:40.632Z,34.60
2023-03-19T01:59:15.146Z,34.50
2023-03-19T02:02:03.804Z,34.70
2023-03-19T02:04:32.982Z,34.80
2023-03-19T02:07:02.470Z,34.90
2023-03-19T02:09:30.680Z,35.00
2023-03-19T02:11:59.364Z,35.20
2023-03-19T02:14:26.739Z,35.20
2023-03-19T02:16:54.887Z,35.20
2023-03-19T02:19:52.527Z,35.10
2023-03-19T02:22:23.062Z,34.60
2023-03-19T02:25:06.362Z,34.40
2023-03-19T02:27:33.481Z,34.30
2023-03-19T02:30:02.726Z,34.50
2023-03-19T02:32:30.563Z,34.60
2023-03-19T02:34:57.538Z,34.80
2023-03-19T02:37:33.373Z,34.80
2023-03-19T02:40:12.995Z,34.90
2023-03-19T02:42:40.010Z,34.90
2023-03-19T02:45:08.882Z,35.00
2023-03-19T02:47:35.850Z,35.00
2023-03-19T02:50:02.906Z,35.00
2023-03-19T02:52:29.855Z,35.10
2023-03-19T02:54:56.938Z,35.10
2023-03-19T02:57:23.965Z,34.90
2023-03-19T02:59:50.993Z,35.00
2023-03-19T03:02:18.064Z,34.90
2023-03-19T03:04:45.848Z,34.90
2023-03-19T03:07:13.096Z,34.70
2023-03-19T03:09:40.106Z,34.80
2023-03-19T03:12:07.459Z,34.90
2023-03-19T03:14:35.283Z,35.00
2023-03-19T03:17:02.310Z,34.70
2023-03-19T03:19:29.348Z,34.80
2023-03-19T03:21:57.835Z,34.70
2023-03-19T03:24:24.904Z,34.40
2023-03-19T03:26:51.868Z,34.30
2023-03-19T03:29:18.900Z,33.90
2023-03-19T03:31:45.956Z,33.60
2023-03-19T03:34:12.988Z,33.60
2023-03-19T03:36:40.127Z,33.70
2023-03-19T03:39:07.126Z,33.90
2023-03-19T03:41:34.205Z,34.10
2023-03-19T03:44:01.486Z,34.10
2023-03-19T03:46:28.665Z,34.10
2023-03-19T03:48:55.733Z,34.10
2023-03-19T03:51:22.940Z,34.10
2023-03-19T03:53:49.951Z,34.20
2023-03-19T03:56:16.994Z,33.60
2023-03-19T03:58:44.122Z,32.40
2023-03-19T04:01:16.642Z,33.00
2023-03-19T04:03:44.669Z,33.20
2023-03-19T04:06:19.975Z,33.60
2023-03-19T04:08:47.298Z,33.80
2023-03-19T04:11:15.209Z,34.20
2023-03-19T04:13:42.463Z,34.00
2023-03-19T04:16:11.158Z,33.60
2023-03-19T04:18:38.996Z,33.60
2023-03-19T04:21:06.816Z,33.20
2023-03-19T04:23:33.847Z,33.50
2023-03-19T04:26:02.491Z,33.70
2023-03-19T04:28:30.652Z,33.90
2023-03-19T04:31:06.445Z,34.00
2023-03-19T04:33:34.086Z,34.20
2023-03-19T04:36:01.480Z,34.30
2023-03-19T04:38:28.807Z,34.20
2023-03-19T04:40:56.748Z,34.40
2023-03-19T04:43:24.450Z,34.30
2023-03-19T04:45:52.133Z,34.10
2023-03-19T04:48:19.276Z,34.30
2023-03-19T04:50:47.307Z,34.00
2023-03-19T04:53:14.573Z,34.00
2023-03-19T04:55:41.757Z,34.20
2023-03-19T04:58:09.298Z,34.40
2023-03-19T05:00:36.785Z,34.00
2023-03-19T05:03:04.147Z,34.30
2023-03-19T05:05:31.197Z,34.10
2023-03-19T05:07:58.303Z,34.20
2023-03-19T05:10:25.306Z,33.50
2023-03-19T05:12:52.303Z,33.70
2023-03-19T05:15:19.474Z,33.90
2023-03-19T05:17:46.562Z,34.20
2023-03-19T05:20:14.448Z,34.30
2023-03-19T05:22:41.965Z,34.30
2023-03-19T05:25:09.858Z,34.40
2023-03-19T05:27:36.945Z,34.00
2023-03-19T05:30:05.791Z,34.30
2023-03-19T05:32:33.369Z,34.00
2023-03-19T05:35:00.427Z,34.20
2023-03-19T05:37:27.410Z,34.40
2023-03-19T05:39:54.487Z,34.50
2023-03-19T05:42:21.844Z,34.60
2023-03-19T05:44:48.957Z,34.40
2023-03-19T05:47:16.404Z,34.60
2023-03-19T05:49:43.523Z,34.60
2023-03-19T05:52:11.201Z,34.70
2023-03-19T05:54:38.270Z,34.60
2023-03-19T05:57:07.357Z,34.00
2023-03-19T05:59:34.866Z,33.80
2023-03-19T06:02:01.967Z,34.20
2023-03-19T06:04:29.211Z,34.10
2023-03-19T06:06:56.377Z,34.20
2023-03-19T06:09:23.352Z,34.20
2023-03-19T06:11:50.637Z,34.20
2023-03-19T06:14:17.631Z,34.30
2023-03-19T06:16:44.789Z,34.40
2023-03-19T06:19:11.927Z,34.50
2023-03-19T06:21:38.891Z,34.40
2023-03-19T06:24:06.696Z,34.30
2023-03-19T06:26:34.265Z,34.60
2023-03-19T06:29:01.283Z,34.20
2023-03-19T06:31:28.666Z,34.10
2023-03-19T06:33:56.412Z,34.40
2023-03-19T06:36:23.419Z,34.60
2023-03-19T06:38:50.602Z,34.90
2023-03-19T06:41:17.939Z,34.80
2023-03-19T06:43:45.061Z,34.30
2023-03-19T06:46:12.292Z,34.60
2023-03-19T06:48:39.619Z,35.00
2023-03-19T06:51:07.012Z,35.40
2023-03-19T06:53:34.130Z,35.70
2023-03-19T06:56:01.277Z,35.50
2023-03-19T06:58:28.307Z,35.60
2023-03-19T07:00:56.281Z,35.40
2023-03-19T07:03:23.421Z,35.80
2023-03-19T07:05:53.712Z,35.90
2023-03-19T07:08:20.787Z,35.50
2023-03-19T07:10:48.006Z,35.50
2023-03-19T07:13:15.059Z,35.80
2023-03-19T07:15:41.997Z,35.30
2023-03-19T07:18:09.083Z,36.00
2023-03-19T07:20:36.684Z,35.50
2023-03-19T07:23:03.912Z,35.90
2023-03-19T07:25:31.011Z,35.90
2023-03-19T07:27:58.022Z,35.90
2023-03-19T07:30:25.057Z,35.70
2023-03-19T07:32:52.156Z,35.20
2023-03-19T07:35:19.338Z,35.10
2023-03-19T07:37:46.404Z,35.00
2023-03-19T07:40:13.838Z,35.10
2023-03-19T07:42:41.211Z,34.20
2023-03-19T07:45:09.384Z,33.50
2023-03-19T07:47:36.578Z,33.60
2023-03-19T07:50:04.007Z,34.10
2023-03-19T07:52:31.050Z,35.10
2023-03-19T07:54:58.557Z,35.20
2023-03-19T07:57:25.970Z,34.20
2023-03-19T07:59:53.638Z,34.20
2023-03-19T08:02:23.321Z,35.00
2023-03-19T08:04:51.318Z,34.70
2023-03-19T08:07:18.385Z,35.20
2023-03-19T08:09:45.412Z,34.70
2023-03-19T08:12:12.982Z,34.50
2023-03-19T08:14:40.705Z,34.80
2023-03-19T08:17:08.521Z,34.00
2023-03-19T08:19:35.705Z,34.80
2023-03-19T08:22:02.782Z,34.60
2023-03-19T08:24:29.902Z,34.60
2023-03-19T08:26:56.920Z,33.30
2023-03-19T08:29:26.584Z,32.10
2023-03-19T08:31:57.453Z,32.10
2023-03-19T08:34:25.367Z,32.30
2023-03-19T08:36:52.637Z,33.10
2023-03-19T08:39:19.671Z,33.80
2023-03-19T08:41:46.627Z,33.80
2023-03-19T08:44:14.175Z,34.30
2023-03-19T08:46:42.828Z,33.00
2023-03-19T08:49:10.064Z,32.60
2023-03-19T08:51:37.162Z,32.70
2023-03-19T08:54:04.349Z,33.70
2023-03-19T08:56:31.373Z,34.00
2023-03-19T08:58:58.341Z,34.50
2023-03-19T09:01:25.591Z,34.60
2023-03-19T09:03:52.642Z,34.50
2023-03-19T09:06:19.606Z,34.40
2023-03-19T09:08:46.931Z,33.70
2023-03-19T09:11:14.657Z,34.10
2023-03-19T09:13:41.890Z,33.90
2023-03-19T09:16:08.983Z,33.10
2023-03-19T09:18:36.395Z,33.50
2023-03-19T09:21:04.047Z,33.80
2023-03-19T09:23:31.353Z,32.80
2023-03-19T09:25:58.341Z,33.40
2023-03-19T09:28:25.835Z,33.80
2023-03-19T09:30:53.001Z,34.20
2023-03-19T09:33:21.508Z,34.50
2023-03-19T09:35:53.804Z,34.60
2023-03-19T09:38:22.328Z,35.20
2023-03-19T09:41:04.646Z,35.20
2023-03-19T09:43:41.243Z,34.70
2023-03-19T09:46:22.525Z,34.30
2023-03-19T09:49:04.104Z,33.70
2023-03-19T09:51:41.820Z,34.70
2023-03-19T09:54:24.780Z,34.90
2023-03-19T09:56:52.359Z,34.90
2023-03-19T09:59:22.922Z,34.20
2023-03-19T10:02:18.792Z,34.20
2023-03-19T10:05:05.694Z,34.80
2023-03-19T10:07:41.855Z,34.80
2023-03-19T10:10:30.306Z,34.40
2023-03-19T10:13:26.830Z,34.00
2023-03-19T10:15:56.021Z,34.40
2023-03-19T10:18:34.832Z,34.90
2023-03-19T10:21:09.119Z,34.90
2023-03-19T10:23:42.758Z,34.10
2023-03-19T10:26:13.902Z,33.50
2023-03-19T10:28:44.601Z,34.40
2023-03-19T10:31:20.296Z,34.90
2023-03-19T10:34:10.985Z,34.90
2023-03-19T10:36:38.782Z,34.30
2023-03-19T10:39:08.053Z,33.70
2023-03-19T10:41:59.501Z,33.70
2023-03-19T10:44:32.378Z,33.00
2023-03-19T10:47:09.458Z,32.40
2023-03-19T10:49:37.092Z,31.90
2023-03-19T10:52:04.981Z,31.00
2023-03-19T10:54:32.053Z,30.50
2023-03-19T10:57:01.369Z,30.30
2023-03-19T10:59:31.060Z,30.90
2023-03-19T11:02:02.115Z,32.50
2023-03-19T11:04:29.976Z,32.90
2023-03-19T11:07:03.745Z,33.20
2023-03-19T11:09:34.225Z,33.40
2023-03-19T11:12:29.606Z,33.20
2023-03-19T11:15:00.803Z,32.80
2023-03-19T11:17:29.962Z,33.10
2023-03-19T11:19:59.572Z,33.50
2023-03-19T11:22:38.092Z,33.70
2023-03-19T11:25:27.762Z,34.20
2023-03-19T11:28:03.699Z,34.30
2023-03-19T11:31:00.916Z,34.50
2023-03-19T11:33:42.004Z,34.50
2023-03-19T11:36:13.928Z,35.10
2023-03-19T11:38:59.410Z,35.80
2023-03-19T11:42:10.512Z,35.90
2023-03-19T11:44:59.419Z,36.30
2023-03-19T11:47:40.970Z,36.40
2023-03-19T11:50:36.231Z,36.20
2023-03-19T11:53:27.882Z,36.20
2023-03-19T11:56:20.912Z,36.40
2023-03-19T11:58:57.969Z,36.90
2023-03-19T12:01:28.489Z,37.20
2023-03-19T12:04:16.747Z,37.60
2023-03-19T12:07:21.944Z,37.80
2023-03-19T12:10:00.767Z,38.00
2023-03-19T12:12:42.991Z,38.30
2023-03-19T12:15:34.408Z,37.80
2023-03-19T12:18:41.158Z,36.00
2023-03-19T12:21:26.960Z,36.10
2023-03-19T12:23:56.881Z,35.60
2023-03-19T12:26:54.193Z,35.50
2023-03-19T12:29:48.604Z,36.00
2023-03-19T12:32:37.922Z,36.70
2023-03-19T12:35:15.192Z,37.60
2023-03-19T12:38:00.753Z,38.30
2023-03-19T12:40:42.124Z,38.90
2023-03-19T12:43:26.475Z,39.10
2023-03-19T12:46:02.424Z,39.30
2023-03-19T12:48:39.091Z,39.60
2023-03-19T12:51:11.176Z,39.80
2023-03-19T12:54:14.924Z,39.40
2023-03-19T12:57:15.653Z,39.60
2023-03-19T13:00:04.999Z,39.30
2023-03-19T13:02:54.517Z,40.20
2023-03-19T13:05:27.305Z,40.60
2023-03-19T13:08:03.837Z,40.20
2023-03-19T13:10:32.569Z,40.10
2023-03-19T13:13:03.011Z,40.40
2023-03-19T13:15:37.545Z,40.60
2023-03-19T13:18:20.164Z,39.90
2023-03-19T13:21:14.329Z,39.60
2023-03-19T13:23:44.424Z,39.00
2023-03-19T13:26:13.826Z,38.60
2023-03-19T13:28:59.505Z,38.30
2023-03-19T13:31:28.028Z,37.30
2023-03-19T13:34:22.209Z,36.70
2023-03-19T13:37:12.304Z,37.40
2023-03-19T13:39:39.928Z,38.20
2023-03-19T13:42:21.790Z,37.80
2023-03-19T13:44:57.253Z,37.60
2023-03-19T13:47:27.091Z,37.90
2023-03-19T13:50:12.709Z,38.20
2023-03-19T13:52:40.232Z,38.70
2023-03-19T13:55:25.209Z,39.40
2023-03-19T13:58:12.152Z,39.80
2023-03-19T14:00:43.064Z,39.10
2023-03-19T14:03:29.011Z,39.30
2023-03-19T14:05:57.793Z,39.20
2023-03-19T14:08:31.604Z,38.50
2023-03-19T14:11:04.820Z,37.90
2023-03-19T14:13:47.772Z,38.20
2023-03-19T14:16:22.322Z,37.80
2023-03-19T14:18:50.533Z,38.50
2023-03-19T14:21:35.915Z,39.30
2023-03-19T14:24:54.784Z,39.20
2023-03-19T14:27:18.440Z,40.00
2023-03-19T14:29:47.361Z,39.80
2023-03-19T14:32:21.696Z,39.20
2023-03-19T14:34:50.040Z,38.70
2023-03-19T14:37:36.869Z,37.90
2023-03-19T14:40:14.630Z,37.40
2023-03-19T14:43:12.650Z,37.30
2023-03-19T14:45:39.741Z,36.90
2023-03-19T14:48:26.526Z,37.70
2023-03-19T14:51:20.980Z,37.80
2023-03-19T14:53:53.399Z,37.90
2023-03-19T14:56:35.011Z,38.70
2023-03-19T14:59:04.380Z,38.50
2023-03-19T15:01:33.632Z,39.30
2023-03-19T15:04:08.130Z,39.70
2023-03-19T15:06:38.962Z,39.80
2023-03-19T15:09:29.895Z,39.50
2023-03-19T15:12:09.477Z,39.30
2023-03-19T15:14:48.161Z,39.20
2023-03-19T15:17:28.725Z,39.30
2023-03-19T15:19:58.436Z,39.60
2023-03-19T15:22:34.033Z,39.90
2023-03-19T15:25:15.212Z,39.60
2023-03-19T15:27:43.041Z,39.50
2023-03-19T15:30:28.798Z,39.30
2023-03-19T15:33:10.281Z,39.30
2023-03-19T15:35:37.836Z,39.50
2023-03-19T15:38:10.781Z,39.40
2023-03-19T15:40:41.196Z,39.50
2023-03-19T15:43:11.419Z,39.10
2023-03-19T15:45:40.010Z,39.20
2023-03-19T15:48:23.890Z,39.10
2023-03-19T15:50:56.725Z,38.60
2023-03-19T15:53:27.202Z,38.10
2023-03-19T15:55:55.733Z,37.60
2023-03-19T15:58:33.053Z,37.70
2023-03-19T16:01:01.697Z,37.90
2023-03-19T16:03:40.599Z,38.00
2023-03-19T16:06:27.039Z,38.10
2023-03-19T16:08:56.939Z,37.80
2023-03-19T16:11:35.491Z,37.80
2023-03-19T16:14:24.295Z,37.70
2023-03-19T16:16:52.458Z,37.90
2023-03-19T16:19:40.216Z,38.10
2023-03-19T16:22:16.497Z,38.20
2023-03-19T16:24:46.360Z,38.20
2023-03-19T16:27:19.686Z,38.10
2023-03-19T16:29:49.024Z,38.20
2023-03-19T16:32:30.961Z,38.00
2023-03-19T16:35:06.026Z,37.90
2023-03-19T16:37:38.727Z,38.10
2023-03-19T16:40:17.462Z,38.00
2023-03-19T16:42:46.652Z,38.00
2023-03-19T16:45:30.650Z,37.90
2023-03-19T16:47:59.848Z,37.90
2023-03-19T16:50:36.242Z,37.70
2023-03-19T16:53:21.532Z,37.50
2023-03-19T16:55:49.335Z,37.30
2023-03-19T16:58:19.080Z,37.50
2023-03-19T17:00:47.381Z,37.50
2023-03-19T17:03:16.912Z,37.20
2023-03-19T17:05:45.739Z,37.10
2023-03-19T17:08:13.702Z,37.30
2023-03-19T17:10:49.183Z,37.30
2023-03-19T17:13:28.545Z,37.20
2023-03-19T17:16:05.800Z,36.80
2023-03-19T17:18:36.876Z,36.80
2023-03-19T17:21:09.092Z,36.80
2023-03-19T17:23:38.089Z,36.90
2023-03-19T17:26:22.220Z,36.80
2023-03-19T17:28:49.941Z,36.80
2023-03-19T17:31:29.307Z,36.70
2023-03-19T17:34:06.568Z,36.80
2023-03-19T17:36:34.122Z,36.80
2023-03-19T17:39:01.274Z,36.70
2023-03-19T17:41:30.490Z,36.90
2023-03-19T17:43:57.487Z,36.90
2023-03-19T17:46:27.302Z,36.50
2023-03-19T17:48:55.779Z,35.80
2023-03-19T17:51:26.082Z,36.40
2023-03-19T17:53:54.645Z,36.70
2023-03-19T17:56:25.394Z,36.90
2023-03-19T17:58:53.038Z,37.10
2023-03-19T18:01:23.187Z,37.10
2023-03-19T18:03:51.526Z,37.10
2023-03-19T18:06:21.457Z,37.30
2023-03-19T18:08:48.751Z,37.40
2023-03-19T18:11:15.895Z,37.20
2023-03-19T18:13:43.439Z,37.30
2023-03-19T18:16:25.717Z,37.50
2023-03-19T18:18:53.283Z,37.20
2023-03-19T18:21:20.414Z,37.10
2023-03-19T18:23:47.900Z,37.30
2023-03-19T18:26:17.216Z,37.40
2023-03-19T18:28:44.920Z,37.50
2023-03-19T18:31:17.197Z,37.60
2023-03-19T18:33:51.227Z,37.50
2023-03-19T18:36:24.529Z,37.50
2023-03-19T18:38:55.968Z,37.60
2023-03-19T18:41:25.563Z,37.60
2023-03-19T18:43:52.633Z,37.70
2023-03-19T18:46:23.868Z,37.60
2023-03-19T18:48:51.315Z,37.70
2023-03-19T18:51:21.161Z,37.70
2023-03-19T18:53:50.239Z,37.70
2023-03-19T18:56:29.439Z,37.50
2023-03-19T18:58:59.295Z,37.60
2023-03-19T19:01:27.408Z,37.70
2023-03-19T19:03:54.905Z,37.80
2023-03-19T19:06:46.031Z,37.80
2023-03-19T19:09:14.424Z,37.90
2023-03-19T19:11:43.994Z,37.90
2023-03-19T19:14:24.172Z,37.90
2023-03-19T19:16:53.156Z,37.80
2023-03-19T19:19:23.560Z,37.90
2023-03-19T19:21:51.981Z,37.70
2023-03-19T19:24:19.282Z,37.70
2023-03-19T19:26:51.005Z,37.60
2023-03-19T19:29:27.016Z,37.50
2023-03-19T19:31:54.935Z,37.30
2023-03-19T19:34:22.927Z,37.00
2023-03-19T19:36:51.004Z,37.00
2023-03-19T19:39:18.532Z,37.10
2023-03-19T19:41:48.476Z,37.10
2023-03-19T19:44:20.435Z,37.20
2023-03-19T19:46:47.430Z,37.30
2023-03-19T19:49:18.873Z,37.10
2023-03-19T19:51:46.406Z,37.00
2023-03-19T19:54:13.518Z,36.60
2023-03-19T19:56:41.491Z,36.60
2023-03-19T19:59:14.278Z,36.50
2023-03-19T20:01:41.317Z,36.60
2023-03-19T20:04:15.014Z,36.60
2023-03-19T20:06:42.070Z,36.50
2023-03-19T20:09:09.160Z,36.50
2023-03-19T20:11:36.410Z,36.40
2023-03-19T20:14:03.639Z,36.60
2023-03-19T20:16:30.754Z,36.70
2023-03-19T20:18:57.834Z,36.60
2023-03-19T20:21:25.674Z,36.60
2023-03-19T20:23:55.673Z,36.60
2023-03-19T20:26:25.113Z,36.60
2023-03-19T20:28:52.906Z,36.40
2023-03-19T20:31:33.116Z,36.30
2023-03-19T20:34:00.370Z,36.00
2023-03-19T20:36:27.564Z,35.90
2023-03-19T20:38:54.700Z,35.70
2023-03-19T20:41:24.411Z,35.60
2023-03-19T20:43:52.177Z,35.30
2023-03-19T20:46:21.181Z,34.80
2023-03-19T20:48:48.868Z,35.10
2023-03-19T20:51:21.605Z,35.60
2023-03-19T20:53:49.956Z,35.70
2023-03-19T20:56:18.758Z,35.50
2023-03-19T20:58:46.120Z,34.60
2023-03-19T21:01:15.657Z,33.90
2023-03-19T21:03:43.323Z,33.70
2023-03-19T21:06:22.697Z,34.20
2023-03-19T21:08:59.785Z,34.80
2023-03-19T21:11:38.564Z,35.50
2023-03-19T21:14:06.367Z,35.80
2023-03-19T21:16:34.132Z,35.60
2023-03-19T21:19:01.837Z,34.70
2023-03-19T21:21:35.448Z,34.60
2023-03-19T21:24:13.461Z,34.40
2023-03-19T21:26:41.546Z,34.60
2023-03-19T21:29:16.028Z,34.40
2023-03-19T21:31:43.440Z,34.90
2023-03-19T21:34:14.235Z,35.50
2023-03-19T21:36:41.279Z,35.90
2023-03-19T21:39:08.434Z,36.10
2023-03-19T21:41:36.273Z,36.30
2023-03-19T21:44:07.660Z,36.40
2023-03-19T21:46:35.057Z,36.50
2023-03-19T21:49:02.103Z,36.60
2023-03-19T21:51:29.919Z,36.60
2023-03-19T21:53:57.026Z,36.60
2023-03-19T21:56:33.638Z,36.60
2023-03-19T21:59:03.615Z,36.60
2023-03-19T22:01:30.611Z,36.60
2023-03-19T22:03:58.576Z,36.60
2023-03-19T22:06:25.957Z,36.50
2023-03-19T22:08:56.249Z,36.50
2023-03-19T22:11:27.675Z,36.40
2023-03-19T22:13:59.904Z,36.40
2023-03-19T22:16:29.138Z,36.40
2023-03-19T22:18:56.358Z,36.50
2023-03-19T22:21:24.228Z,36.40
2023-03-19T22:23:52.159Z,36.40
2023-03-19T22:26:29.945Z,36.00
2023-03-19T22:29:00.260Z,35.40
2023-03-19T22:31:27.776Z,34.90
2023-03-19T22:33:55.359Z,34.00
2023-03-19T22:36:23.330Z,34.10
2023-03-19T22:38:50.594Z,33.70
2023-03-19T22:41:31.007Z,34.00
2023-03-19T22:43:59.392Z,34.30
2023-03-19T22:46:26.660Z,34.70
2023-03-19T22:48:54.093Z,35.00
2023-03-19T22:51:23.960Z,35.30
2023-03-19T22:53:51.847Z,35.60
2023-03-19T22:56:21.015Z,35.60
2023-03-19T22:58:49.351Z,35.70
2023-03-19T23:01:23.523Z,35.60
2023-03-19T23:03:51.767Z,35.70
2023-03-19T23:06:30.133Z,35.70
2023-03-19T23:08:58.151Z,35.50
2023-03-19T23:11:25.725Z,35.60
2023-03-19T23:13:55.347Z,35.40
2023-03-19T23:16:25.288Z,35.30
2023-03-19T23:21:21.406Z,34.40
2023-03-19T23:23:48.358Z,34.20
2023-03-19T23:26:29.370Z,34.50
2023-03-19T23:28:58.604Z,34.80
2023-03-19T23:31:25.667Z,34.90
2023-03-19T23:33:52.934Z,34.70
2023-03-19T23:36:20.443Z,34.10
2023-03-19T23:38:47.607Z,33.30
2023-03-19T23:41:24.964Z,32.50
2023-03-19T23:43:53.017Z,32.30
2023-03-19T23:46:21.331Z,32.60
2023-03-19T23:48:48.466Z,33.20
2023-03-19T23:51:17.299Z,33.50
2023-03-19T23:53:44.771Z,33.90
2023-03-19T23:56:21.096Z,33.60
2023-03-19T23:58:50.160Z,33.90
